sensor_id;sensor_type;location;lat;lon;timestamp;P1;durP1;ratioP1;P2;durP2;ratioP2
19887;SDS011;10106;51.332;12.336;2023-04-12T06:23:34;50.05;;;46.42;;
19887;SDS011;10106;51.332;12.336;2023-04-12T06:26:00;1.73;;;1.63;;
19887;SDS011;10106;51.332;12.336;2023-04-12T06:28:26;3.27;;;1.90;;
19887;SDS011;10106;51.332;12.336;2023-04-12T06:30:52;3.80;;;1.87;;
19887;SDS011;10106;51.332;12.336;2023-04-12T06:33:18;1.70;;;1.60;;
19887;SDS011;10106;51.332;12.336;2023-04-12T06:35:47;2.13;;;1.70;;
19887;SDS011;10106;51.332;12.336;2023-04-12T06:38:12;3.70;;;1.67;;
19887;SDS011;10106;51.332;12.336;2023-04-12T06:40:38;2.27;;;2.10;;
19887;SDS011;10106;51.332;12.336;2023-04-12T06:43:04;2.60;;;2.10;;
19887;SDS011;10106;51.332;12.336;2023-04-12T06:45:29;4.33;;;1.70;;
19887;SDS011;10106;51.332;12.336;2023-04-12T06:47:55;2.17;;;1.90;;
19887;SDS011;10106;51.332;12.336;2023-04-12T06:50:21;3.90;;;1.80;;
19887;SDS011;10106;51.332;12.336;2023-04-12T06:52:47;2.40;;;1.80;;
19887;SDS011;10106;51.332;12.336;2023-04-12T06:55:13;1.70;;;1.60;;
19887;SDS011;10106;51.332;12.336;2023-04-12T06:57:42;4.30;;;1.70;;
19887;SDS011;10106;51.332;12.336;2023-04-12T07:00:09;2.80;;;1.70;;
19887;SDS011;10106;51.332;12.336;2023-04-12T07:02:35;3.17;;;1.80;;
19887;SDS011;10106;51.332;12.336;2023-04-12T07:05:02;2.67;;;2.00;;
19887;SDS011;10106;51.332;12.336;2023-04-12T07:07:28;3.23;;;1.93;;
19887;SDS011;10106;51.332;12.336;2023-04-12T07:09:54;3.00;;;2.57;;
19887;SDS011;10106;51.332;12.336;2023-04-12T07:12:21;8.03;;;2.10;;
19887;SDS011;10106;51.332;12.336;2023-04-12T07:14:47;2.03;;;1.30;;
19887;SDS011;10106;51.332;12.336;2023-04-12T07:17:13;1.70;;;1.60;;
19887;SDS011;10106;51.332;12.336;2023-04-12T07:19:39;1.50;;;1.40;;
19887;SDS011;10106;51.332;12.336;2023-04-12T07:22:06;4.40;;;1.93;;
19887;SDS011;10106;51.332;12.336;2023-04-12T07:24:32;2.50;;;1.93;;
19887;SDS011;10106;51.332;12.336;2023-04-12T07:26:58;1.97;;;1.80;;
19887;SDS011;10106;51.332;12.336;2023-04-12T07:29:23;3.50;;;2.10;;
19887;SDS011;10106;51.332;12.336;2023-04-12T07:31:49;2.47;;;2.00;;
19887;SDS011;10106;51.332;12.336;2023-04-12T07:34:15;2.30;;;1.80;;
19887;SDS011;10106;51.332;12.336;2023-04-12T07:36:41;3.15;;;2.03;;
19887;SDS011;10106;51.332;12.336;2023-04-12T07:39:08;6.55;;;2.08;;
19887;SDS011;10106;51.332;12.336;2023-04-12T07:41:36;2.60;;;1.92;;
19887;SDS011;10106;51.332;12.336;2023-04-12T07:44:02;3.65;;;1.80;;
19887;SDS011;10106;51.332;12.336;2023-04-12T07:46:29;3.05;;;2.38;;
19887;SDS011;10106;51.332;12.336;2023-04-12T07:48:54;2.42;;;1.77;;
19887;SDS011;10106;51.332;12.336;2023-04-12T07:51:20;3.40;;;1.90;;
19887;SDS011;10106;51.332;12.336;2023-04-12T07:53:46;4.47;;;1.92;;
19887;SDS011;10106;51.332;12.336;2023-04-12T07:56:15;4.88;;;2.08;;
19887;SDS011;10106;51.332;12.336;2023-04-12T07:58:41;5.70;;;1.80;;
19887;SDS011;10106;51.332;12.336;2023-04-12T08:01:07;5.80;;;2.08;;
19887;SDS011;10106;51.332;12.336;2023-04-12T08:03:32;4.45;;;2.17;;
19887;SDS011;10106;51.332;12.336;2023-04-12T08:05:58;2.10;;;1.90;;
19887;SDS011;10106;51.332;12.336;2023-04-12T08:08:24;4.07;;;1.83;;
19887;SDS011;10106;51.332;12.336;2023-04-12T08:10:50;2.58;;;1.83;;
19887;SDS011;10106;51.332;12.336;2023-04-12T08:13:16;7.43;;;3.35;;
19887;SDS011;10106;51.332;12.336;2023-04-12T08:15:42;4.53;;;1.60;;
19887;SDS011;10106;51.332;12.336;2023-04-12T08:18:08;2.55;;;1.50;;
19887;SDS011;10106;51.332;12.336;2023-04-12T08:20:35;6.88;;;1.80;;
19887;SDS011;10106;51.332;12.336;2023-04-12T08:23:01;2.70;;;1.97;;
19887;SDS011;10106;51.332;12.336;2023-04-12T08:25:27;2.40;;;1.53;;
19887;SDS011;10106;51.332;12.336;2023-04-12T08:27:52;1.80;;;1.70;;
19887;SDS011;10106;51.332;12.336;2023-04-12T08:30:20;2.60;;;1.70;;
19887;SDS011;10106;51.332;12.336;2023-04-12T08:32:50;2.83;;;2.00;;
19887;SDS011;10106;51.332;12.336;2023-04-12T08:35:19;7.50;;;1.60;;
19887;SDS011;10106;51.332;12.336;2023-04-12T08:37:46;7.63;;;1.93;;
19887;SDS011;10106;51.332;12.336;2023-04-12T08:40:12;3.17;;;1.60;;
19887;SDS011;10106;51.332;12.336;2023-04-12T08:42:37;3.00;;;1.80;;
19887;SDS011;10106;51.332;12.336;2023-04-12T08:45:04;2.80;;;1.50;;
19887;SDS011;10106;51.332;12.336;2023-04-12T08:47:31;8.40;;;1.80;;
19887;SDS011;10106;51.332;12.336;2023-04-12T08:49:59;3.47;;;2.10;;
19887;SDS011;10106;51.332;12.336;2023-04-12T08:52:26;1.80;;;1.60;;
19887;SDS011;10106;51.332;12.336;2023-04-12T08:54:53;6.63;;;2.03;;
19887;SDS011;10106;51.332;12.336;2023-04-12T08:57:20;4.60;;;2.20;;
19887;SDS011;10106;51.332;12.336;2023-04-12T08:59:46;7.20;;;1.93;;
19887;SDS011;10106;51.332;12.336;2023-04-12T09:02:16;3.67;;;1.50;;
19887;SDS011;10106;51.332;12.336;2023-04-12T09:04:51;5.13;;;1.70;;
19887;SDS011;10106;51.332;12.336;2023-04-12T09:07:21;4.83;;;1.67;;
19887;SDS011;10106;51.332;12.336;2023-04-12T09:09:47;1.00;;;0.90;;
19887;SDS011;10106;51.332;12.336;2023-04-12T09:12:14;4.33;;;1.73;;
19887;SDS011;10106;51.332;12.336;2023-04-12T09:14:41;5.07;;;1.57;;
19887;SDS011;10106;51.332;12.336;2023-04-12T09:17:24;1.97;;;1.53;;
19887;SDS011;10106;51.332;12.336;2023-04-12T09:19:52;4.00;;;1.53;;
19887;SDS011;10106;51.332;12.336;2023-04-12T09:22:33;4.87;;;1.30;;
19887;SDS011;10106;51.332;12.336;2023-04-12T09:24:59;3.03;;;1.70;;
19887;SDS011;10106;51.332;12.336;2023-04-12T09:27:25;3.60;;;1.80;;
19887;SDS011;10106;51.332;12.336;2023-04-12T09:30:05;2.10;;;1.43;;
19887;SDS011;10106;51.332;12.336;2023-04-12T09:32:32;5.97;;;2.10;;
19887;SDS011;10106;51.332;12.336;2023-04-12T09:34:57;3.03;;;1.23;;
19887;SDS011;10106;51.332;12.336;2023-04-12T09:37:26;1.57;;;1.37;;
19887;SDS011;10106;51.332;12.336;2023-04-12T09:40:02;6.30;;;2.00;;
19887;SDS011;10106;51.332;12.336;2023-04-12T09:42:29;3.60;;;1.80;;
19887;SDS011;10106;51.332;12.336;2023-04-12T09:44:57;6.63;;;1.83;;
19887;SDS011;10106;51.332;12.336;2023-04-12T09:47:39;2.00;;;1.40;;
19887;SDS011;10106;51.332;12.336;2023-04-12T09:50:05;3.53;;;1.97;;
19887;SDS011;10106;51.332;12.336;2023-04-12T09:52:38;5.53;;;1.77;;
19887;SDS011;10106;51.332;12.336;2023-04-12T09:55:08;3.03;;;1.47;;
19887;SDS011;10106;51.332;12.336;2023-04-12T09:57:44;3.50;;;1.73;;
19887;SDS011;10106;51.332;12.336;2023-04-12T10:00:10;1.90;;;1.50;;
19887;SDS011;10106;51.332;12.336;2023-04-12T10:02:48;1.77;;;1.40;;
19887;SDS011;10106;51.332;12.336;2023-04-12T10:05:16;2.63;;;1.70;;
19887;SDS011;10106;51.332;12.336;2023-04-12T10:07:43;2.70;;;1.60;;
19887;SDS011;10106;51.332;12.336;2023-04-12T10:10:14;2.20;;;1.30;;
19887;SDS011;10106;51.332;12.336;2023-04-12T10:12:41;2.87;;;1.77;;
19887;SDS011;10106;51.332;12.336;2023-04-12T10:15:09;3.03;;;1.50;;
19887;SDS011;10106;51.332;12.336;2023-04-12T10:17:41;1.90;;;1.60;;
19887;SDS011;10106;51.332;12.336;2023-04-12T10:20:11;9.27;;;1.60;;
19887;SDS011;10106;51.332;12.336;2023-04-12T10:22:39;6.40;;;1.53;;
19887;SDS011;10106;51.332;12.336;2023-04-12T10:25:08;2.87;;;1.80;;
19887;SDS011;10106;51.332;12.336;2023-04-12T10:27:38;2.87;;;1.83;;
19887;SDS011;10106;51.332;12.336;2023-04-12T10:35:29;10.97;;;1.83;;
19887;SDS011;10106;51.332;12.336;2023-04-12T10:38:13;2.20;;;1.37;;
19887;SDS011;10106;51.332;12.336;2023-04-12T10:41:05;11.23;;;1.40;;
19887;SDS011;10106;51.332;12.336;2023-04-12T10:43:34;1.63;;;1.50;;
19887;SDS011;10106;51.332;12.336;2023-04-12T10:46:00;4.43;;;2.00;;
19887;SDS011;10106;51.332;12.336;2023-04-12T10:48:37;2.10;;;1.70;;
19887;SDS011;10106;51.332;12.336;2023-04-12T10:51:37;3.00;;;1.37;;
19887;SDS011;10106;51.332;12.336;2023-04-12T10:59:00;10.63;;;1.90;;
19887;SDS011;10106;51.332;12.336;2023-04-12T11:01:27;1.70;;;1.57;;
19887;SDS011;10106;51.332;12.336;2023-04-12T11:04:04;4.57;;;1.90;;
19887;SDS011;10106;51.332;12.336;2023-04-12T11:14:34;1.23;;;1.10;;
19887;SDS011;10106;51.332;12.336;2023-04-12T11:19:33;2.20;;;2.00;;
19887;SDS011;10106;51.332;12.336;2023-04-12T11:22:06;4.33;;;1.63;;
19887;SDS011;10106;51.332;12.336;2023-04-12T11:24:37;2.50;;;1.73;;
19887;SDS011;10106;51.332;12.336;2023-04-12T11:27:03;6.13;;;1.40;;
19887;SDS011;10106;51.332;12.336;2023-04-12T11:29:29;2.80;;;1.77;;
19887;SDS011;10106;51.332;12.336;2023-04-12T11:31:56;5.70;;;1.63;;
19887;SDS011;10106;51.332;12.336;2023-04-12T11:34:23;5.73;;;1.07;;
19887;SDS011;10106;51.332;12.336;2023-04-12T11:36:52;2.50;;;1.57;;
19887;SDS011;10106;51.332;12.336;2023-04-12T11:39:19;5.20;;;1.37;;
19887;SDS011;10106;51.332;12.336;2023-04-12T11:41:45;2.50;;;1.17;;
19887;SDS011;10106;51.332;12.336;2023-04-12T11:44:15;2.13;;;1.70;;
19887;SDS011;10106;51.332;12.336;2023-04-12T11:46:45;2.10;;;1.37;;
19887;SDS011;10106;51.332;12.336;2023-04-12T11:49:18;1.13;;;1.03;;
19887;SDS011;10106;51.332;12.336;2023-04-12T11:51:45;2.90;;;1.83;;
19887;SDS011;10106;51.332;12.336;2023-04-12T11:54:11;1.83;;;1.37;;
19887;SDS011;10106;51.332;12.336;2023-04-12T11:56:37;1.30;;;1.20;;
19887;SDS011;10106;51.332;12.336;2023-04-12T11:59:04;1.03;;;1.00;;
19887;SDS011;10106;51.332;12.336;2023-04-12T12:01:31;1.90;;;1.50;;
19887;SDS011;10106;51.332;12.336;2023-04-12T12:03:59;2.47;;;1.70;;
19887;SDS011;10106;51.332;12.336;2023-04-12T12:06:26;1.97;;;1.50;;
19887;SDS011;10106;51.332;12.336;2023-04-12T12:08:52;2.73;;;1.80;;
19887;SDS011;10106;51.332;12.336;2023-04-12T12:11:19;1.63;;;1.37;;
19887;SDS011;10106;51.332;12.336;2023-04-12T12:13:53;2.30;;;1.40;;
19887;SDS011;10106;51.332;12.336;2023-04-12T12:16:23;1.50;;;1.40;;
19887;SDS011;10106;51.332;12.336;2023-04-12T12:18:53;4.03;;;1.77;;
19887;SDS011;10106;51.332;12.336;2023-04-12T12:21:18;3.03;;;1.40;;
19887;SDS011;10106;51.332;12.336;2023-04-12T12:23:45;4.40;;;2.77;;
19887;SDS011;10106;51.332;12.336;2023-04-12T12:26:21;2.80;;;1.60;;
19887;SDS011;10106;51.332;12.336;2023-04-12T12:28:49;1.70;;;1.30;;
19887;SDS011;10106;51.332;12.336;2023-04-12T12:31:20;2.10;;;1.20;;
19887;SDS011;10106;51.332;12.336;2023-04-12T12:33:47;1.43;;;1.30;;
19887;SDS011;10106;51.332;12.336;2023-04-12T12:36:17;2.63;;;1.67;;
19887;SDS011;10106;51.332;12.336;2023-04-12T12:38:44;2.83;;;1.23;;
19887;SDS011;10106;51.332;12.336;2023-04-12T12:41:20;7.10;;;1.20;;
19887;SDS011;10106;51.332;12.336;2023-04-12T12:43:47;1.50;;;1.40;;
19887;SDS011;10106;51.332;12.336;2023-04-12T12:46:17;1.60;;;1.50;;
19887;SDS011;10106;51.332;12.336;2023-04-12T12:48:44;8.60;;;1.47;;
19887;SDS011;10106;51.332;12.336;2023-04-12T12:51:11;1.53;;;1.43;;
19887;SDS011;10106;51.332;12.336;2023-04-12T12:53:41;2.40;;;1.20;;
19887;SDS011;10106;51.332;12.336;2023-04-12T12:56:08;1.67;;;1.50;;
19887;SDS011;10106;51.332;12.336;2023-04-12T12:58:35;1.40;;;1.30;;
19887;SDS011;10106;51.332;12.336;2023-04-12T13:01:01;3.33;;;1.13;;
19887;SDS011;10106;51.332;12.336;2023-04-12T13:03:28;1.13;;;1.10;;
19887;SDS011;10106;51.332;12.336;2023-04-12T13:05:54;2.97;;;1.37;;
19887;SDS011;10106;51.332;12.336;2023-04-12T13:08:21;5.70;;;1.40;;
19887;SDS011;10106;51.332;12.336;2023-04-12T13:10:47;1.60;;;1.50;;
19887;SDS011;10106;51.332;12.336;2023-04-12T13:13:13;1.50;;;1.40;;
19887;SDS011;10106;51.332;12.336;2023-04-12T13:15:39;1.40;;;1.30;;
19887;SDS011;10106;51.332;12.336;2023-04-12T13:18:05;1.67;;;1.40;;
19887;SDS011;10106;51.332;12.336;2023-04-12T13:20:31;1.50;;;1.40;;
19887;SDS011;10106;51.332;12.336;2023-04-12T13:22:57;2.43;;;1.83;;
19887;SDS011;10106;51.332;12.336;2023-04-12T13:25:23;1.57;;;1.30;;
19887;SDS011;10106;51.332;12.336;2023-04-12T13:27:49;1.17;;;1.17;;
19887;SDS011;10106;51.332;12.336;2023-04-12T13:30:18;3.37;;;1.77;;
19887;SDS011;10106;51.332;12.336;2023-04-12T13:32:44;1.40;;;1.27;;
19887;SDS011;10106;51.332;12.336;2023-04-12T13:35:10;0.90;;;0.90;;
19887;SDS011;10106;51.332;12.336;2023-04-12T13:37:37;1.40;;;1.30;;
19887;SDS011;10106;51.332;12.336;2023-04-12T13:40:03;1.67;;;1.57;;
19887;SDS011;10106;51.332;12.336;2023-04-12T13:42:29;1.43;;;1.33;;
19887;SDS011;10106;51.332;12.336;2023-04-12T13:44:55;1.80;;;1.70;;
19887;SDS011;10106;51.332;12.336;2023-04-12T13:47:22;2.13;;;1.30;;
19887;SDS011;10106;51.332;12.336;2023-04-12T13:49:55;1.50;;;1.40;;
19887;SDS011;10106;51.332;12.336;2023-04-12T13:52:21;2.60;;;1.50;;
19887;SDS011;10106;51.332;12.336;2023-04-12T13:54:47;1.73;;;1.63;;
19887;SDS011;10106;51.332;12.336;2023-04-12T13:57:13;2.83;;;1.67;;
19887;SDS011;10106;51.332;12.336;2023-04-12T13:59:38;1.80;;;1.20;;
19887;SDS011;10106;51.332;12.336;2023-04-12T14:02:04;1.60;;;1.50;;
19887;SDS011;10106;51.332;12.336;2023-04-12T14:04:30;1.30;;;1.30;;
19887;SDS011;10106;51.332;12.336;2023-04-12T14:06:57;2.70;;;1.80;;
19887;SDS011;10106;51.332;12.336;2023-04-12T14:09:23;2.15;;;1.92;;
19887;SDS011;10106;51.332;12.336;2023-04-12T14:11:50;2.20;;;1.75;;
19887;SDS011;10106;51.332;12.336;2023-04-12T14:14:19;3.20;;;1.50;;
19887;SDS011;10106;51.332;12.336;2023-04-12T14:16:45;1.63;;;1.53;;
19887;SDS011;10106;51.332;12.336;2023-04-12T14:19:11;3.42;;;2.28;;
19887;SDS011;10106;51.332;12.336;2023-04-12T14:21:49;2.10;;;1.90;;
19887;SDS011;10106;51.332;12.336;2023-04-12T14:24:28;3.25;;;2.40;;
19887;SDS011;10106;51.332;12.336;2023-04-12T14:27:13;2.22;;;2.00;;
19887;SDS011;10106;51.332;12.336;2023-04-12T14:32:59;2.50;;;2.23;;
19887;SDS011;10106;51.332;12.336;2023-04-12T14:35:39;2.13;;;1.90;;
19887;SDS011;10106;51.332;12.336;2023-04-12T14:38:20;3.93;;;1.70;;
19887;SDS011;10106;51.332;12.336;2023-04-12T14:40:47;2.03;;;1.83;;
19887;SDS011;10106;51.332;12.336;2023-04-12T14:43:18;2.57;;;1.70;;
19887;SDS011;10106;51.332;12.336;2023-04-12T14:45:50;4.17;;;1.50;;
19887;SDS011;10106;51.332;12.336;2023-04-12T14:48:20;1.83;;;1.50;;
19887;SDS011;10106;51.332;12.336;2023-04-12T14:50:52;1.92;;;1.83;;
19887;SDS011;10106;51.332;12.336;2023-04-12T14:53:20;4.83;;;2.20;;
19887;SDS011;10106;51.332;12.336;2023-04-12T14:55:47;4.00;;;1.80;;
19887;SDS011;10106;51.332;12.336;2023-04-12T14:58:12;1.93;;;1.30;;
19887;SDS011;10106;51.332;12.336;2023-04-12T15:00:38;1.50;;;1.40;;
19887;SDS011;10106;51.332;12.336;2023-04-12T15:03:04;1.73;;;1.43;;
19887;SDS011;10106;51.332;12.336;2023-04-12T15:05:31;1.60;;;1.50;;
19887;SDS011;10106;51.332;12.336;2023-04-12T15:07:57;3.43;;;1.57;;
19887;SDS011;10106;51.332;12.336;2023-04-12T15:10:23;2.27;;;1.90;;
19887;SDS011;10106;51.332;12.336;2023-04-12T15:12:49;1.70;;;1.60;;
19887;SDS011;10106;51.332;12.336;2023-04-12T15:15:18;1.70;;;1.60;;
19887;SDS011;10106;51.332;12.336;2023-04-12T15:17:44;1.47;;;1.37;;
19887;SDS011;10106;51.332;12.336;2023-04-12T15:20:10;1.00;;;1.00;;
19887;SDS011;10106;51.332;12.336;2023-04-12T15:22:37;2.30;;;2.10;;
19887;SDS011;10106;51.332;12.336;2023-04-12T15:25:04;1.90;;;1.80;;
19887;SDS011;10106;51.332;12.336;2023-04-12T15:27:31;1.70;;;1.53;;
19887;SDS011;10106;51.332;12.336;2023-04-12T15:29:59;1.63;;;1.53;;
19887;SDS011;10106;51.332;12.336;2023-04-12T15:32:29;2.03;;;1.90;;
19887;SDS011;10106;51.332;12.336;2023-04-12T15:34:57;1.67;;;1.57;;
19887;SDS011;10106;51.332;12.336;2023-04-12T15:37:25;1.80;;;1.70;;
19887;SDS011;10106;51.332;12.336;2023-04-12T15:39:50;3.40;;;1.60;;
19887;SDS011;10106;51.332;12.336;2023-04-12T15:42:17;1.47;;;1.37;;
19887;SDS011;10106;51.332;12.336;2023-04-12T15:44:43;1.70;;;1.60;;
19887;SDS011;10106;51.332;12.336;2023-04-12T15:47:10;1.60;;;1.50;;
19887;SDS011;10106;51.332;12.336;2023-04-12T15:49:36;1.57;;;1.47;;
19887;SDS011;10106;51.332;12.336;2023-04-12T15:52:05;2.20;;;1.67;;
19887;SDS011;10106;51.332;12.336;2023-04-12T15:54:31;2.60;;;2.27;;
19887;SDS011;10106;51.332;12.336;2023-04-12T15:56:56;1.63;;;1.53;;
19887;SDS011;10106;51.332;12.336;2023-04-12T15:59:23;2.67;;;1.53;;
19887;SDS011;10106;51.332;12.336;2023-04-12T16:01:49;2.93;;;2.00;;
19887;SDS011;10106;51.332;12.336;2023-04-12T16:04:16;1.63;;;1.53;;
19887;SDS011;10106;51.332;12.336;2023-04-12T16:06:42;2.40;;;2.20;;
19887;SDS011;10106;51.332;12.336;2023-04-12T16:09:09;1.50;;;1.40;;
19887;SDS011;10106;51.332;12.336;2023-04-12T16:11:36;2.70;;;2.10;;
19887;SDS011;10106;51.332;12.336;2023-04-12T16:14:02;1.70;;;1.60;;
19887;SDS011;10106;51.332;12.336;2023-04-12T16:16:28;2.90;;;2.03;;
19887;SDS011;10106;51.332;12.336;2023-04-12T16:18:54;3.30;;;2.07;;
19887;SDS011;10106;51.332;12.336;2023-04-12T16:21:20;1.53;;;1.43;;
19887;SDS011;10106;51.332;12.336;2023-04-12T16:23:47;1.57;;;1.40;;
19887;SDS011;10106;51.332;12.336;2023-04-12T16:26:16;1.50;;;1.40;;
19887;SDS011;10106;51.332;12.336;2023-04-12T16:28:45;2.07;;;1.90;;
19887;SDS011;10106;51.332;12.336;2023-04-12T16:31:12;1.60;;;1.50;;
19887;SDS011;10106;51.332;12.336;2023-04-12T16:33:39;2.00;;;1.90;;
19887;SDS011;10106;51.332;12.336;2023-04-12T16:36:05;3.00;;;2.00;;
19887;SDS011;10106;51.332;12.336;2023-04-12T16:38:32;2.10;;;1.97;;
19887;SDS011;10106;51.332;12.336;2023-04-12T16:40:58;2.20;;;1.83;;
19887;SDS011;10106;51.332;12.336;2023-04-12T16:43:24;3.63;;;2.60;;
19887;SDS011;10106;51.332;12.336;2023-04-12T16:45:50;2.27;;;2.03;;
19887;SDS011;10106;51.332;12.336;2023-04-12T16:48:16;2.83;;;2.17;;
19887;SDS011;10106;51.332;12.336;2023-04-12T16:50:42;4.70;;;2.57;;
19887;SDS011;10106;51.332;12.336;2023-04-12T16:53:10;2.40;;;1.93;;
19887;SDS011;10106;51.332;12.336;2023-04-12T16:55:42;2.17;;;1.70;;
19887;SDS011;10106;51.332;12.336;2023-04-12T16:58:12;2.20;;;1.70;;
19887;SDS011;10106;51.332;12.336;2023-04-12T17:00:38;2.60;;;2.40;;
19887;SDS011;10106;51.332;12.336;2023-04-12T17:03:07;2.83;;;1.93;;
19887;SDS011;10106;51.332;12.336;2023-04-12T17:05:34;1.83;;;1.73;;
19887;SDS011;10106;51.332;12.336;2023-04-12T17:08:00;1.93;;;1.67;;
19887;SDS011;10106;51.332;12.336;2023-04-12T17:10:29;3.90;;;2.33;;
19887;SDS011;10106;51.332;12.336;2023-04-12T17:12:56;2.97;;;2.10;;
19887;SDS011;10106;51.332;12.336;2023-04-12T17:15:22;1.87;;;1.77;;
19887;SDS011;10106;51.332;12.336;2023-04-12T17:17:50;2.80;;;1.90;;
19887;SDS011;10106;51.332;12.336;2023-04-12T17:20:20;2.37;;;2.17;;
19887;SDS011;10106;51.332;12.336;2023-04-12T17:22:47;1.53;;;1.43;;
19887;SDS011;10106;51.332;12.336;2023-04-12T17:25:13;2.77;;;1.87;;
19887;SDS011;10106;51.332;12.336;2023-04-12T17:27:39;2.40;;;1.63;;
19887;SDS011;10106;51.332;12.336;2023-04-12T17:30:06;2.13;;;1.93;;
19887;SDS011;10106;51.332;12.336;2023-04-12T17:32:34;436.97;;;179.43;;
19887;SDS011;10106;51.332;12.336;2023-04-12T17:35:01;3.23;;;1.67;;
19887;SDS011;10106;51.332;12.336;2023-04-12T17:37:27;1.17;;;1.10;;
19887;SDS011;10106;51.332;12.336;2023-04-12T17:39:53;1.53;;;1.40;;
19887;SDS011;10106;51.332;12.336;2023-04-12T17:42:20;3.97;;;1.90;;
19887;SDS011;10106;51.332;12.336;2023-04-12T17:44:46;2.50;;;2.20;;
19887;SDS011;10106;51.332;12.336;2023-04-12T17:47:13;4.60;;;2.70;;
19887;SDS011;10106;51.332;12.336;2023-04-12T17:49:39;3.57;;;2.40;;
19887;SDS011;10106;51.332;12.336;2023-04-12T17:52:06;2.47;;;2.13;;
19887;SDS011;10106;51.332;12.336;2023-04-12T17:54:33;5.60;;;3.37;;
19887;SDS011;10106;51.332;12.336;2023-04-12T17:57:00;654.97;;;211.50;;
19887;SDS011;10106;51.332;12.336;2023-04-12T17:59:26;652.70;;;203.23;;
19887;SDS011;10106;51.332;12.336;2023-04-12T18:01:52;615.53;;;199.77;;
19887;SDS011;10106;51.332;12.336;2023-04-12T18:04:18;649.53;;;196.27;;
19887;SDS011;10106;51.332;12.336;2023-04-12T18:06:44;4.33;;;2.87;;
19887;SDS011;10106;51.332;12.336;2023-04-12T18:09:10;657.00;;;212.50;;
19887;SDS011;10106;51.332;12.336;2023-04-12T18:11:37;673.60;;;234.67;;
19887;SDS011;10106;51.332;12.336;2023-04-12T18:14:04;682.17;;;238.47;;
19887;SDS011;10106;51.332;12.336;2023-04-12T18:16:30;451.97;;;237.80;;
19887;SDS011;10106;51.332;12.336;2023-04-12T18:18:56;580.47;;;237.90;;
19887;SDS011;10106;51.332;12.336;2023-04-12T18:21:23;531.70;;;235.87;;
19887;SDS011;10106;51.332;12.336;2023-04-12T18:23:51;607.63;;;239.77;;
19887;SDS011;10106;51.332;12.336;2023-04-12T18:26:17;668.47;;;233.37;;
19887;SDS011;10106;51.332;12.336;2023-04-12T18:28:43;680.97;;;237.70;;
19887;SDS011;10106;51.332;12.336;2023-04-12T18:31:09;645.83;;;248.43;;
19887;SDS011;10106;51.332;12.336;2023-04-12T18:33:35;653.03;;;250.37;;
19887;SDS011;10106;51.332;12.336;2023-04-12T18:36:02;607.23;;;236.87;;
19887;SDS011;10106;51.332;12.336;2023-04-12T18:38:28;679.93;;;252.30;;
19887;SDS011;10106;51.332;12.336;2023-04-12T18:40:59;669.43;;;232.17;;
19887;SDS011;10106;51.332;12.336;2023-04-12T18:43:26;676.63;;;244.50;;
19887;SDS011;10106;51.332;12.336;2023-04-12T18:45:52;608.30;;;229.27;;
19887;SDS011;10106;51.332;12.336;2023-04-12T18:48:18;707.50;;;628.05;;
19887;SDS011;10106;51.332;12.336;2023-04-12T18:50:45;836.20;;;747.67;;
19887;SDS011;10106;51.332;12.336;2023-04-12T18:53:11;858.38;;;768.83;;
19887;SDS011;10106;51.332;12.336;2023-04-12T18:55:37;875.50;;;785.58;;
19887;SDS011;10106;51.332;12.336;2023-04-12T19:05:19;635.00;;;242.23;;
19887;SDS011;10106;51.332;12.336;2023-04-12T19:07:46;669.63;;;235.57;;
19887;SDS011;10106;51.332;12.336;2023-04-12T19:10:12;662.10;;;221.60;;
19887;SDS011;10106;51.332;12.336;2023-04-12T19:12:38;675.33;;;253.53;;
19887;SDS011;10106;51.332;12.336;2023-04-12T19:15:06;661.57;;;215.77;;
19887;SDS011;10106;51.332;12.336;2023-04-12T19:17:33;673.43;;;242.83;;
19887;SDS011;10106;51.332;12.336;2023-04-12T19:20:02;654.53;;;242.67;;
19887;SDS011;10106;51.332;12.336;2023-04-12T19:22:33;672.57;;;237.83;;
19887;SDS011;10106;51.332;12.336;2023-04-12T19:24:59;675.47;;;235.37;;
19887;SDS011;10106;51.332;12.336;2023-04-12T19:27:25;665.90;;;232.27;;
19887;SDS011;10106;51.332;12.336;2023-04-12T19:29:51;666.13;;;235.37;;
19887;SDS011;10106;51.332;12.336;2023-04-12T19:32:17;678.53;;;233.43;;
19887;SDS011;10106;51.332;12.336;2023-04-12T19:34:43;663.57;;;229.07;;
19887;SDS011;10106;51.332;12.336;2023-04-12T19:37:10;678.87;;;231.97;;
19887;SDS011;10106;51.332;12.336;2023-04-12T19:39:37;666.67;;;216.97;;
19887;SDS011;10106;51.332;12.336;2023-04-12T19:42:04;669.50;;;231.10;;
19887;SDS011;10106;51.332;12.336;2023-04-12T19:44:30;667.27;;;217.57;;
19887;SDS011;10106;51.332;12.336;2023-04-12T19:46:56;665.33;;;218.10;;
19887;SDS011;10106;51.332;12.336;2023-04-12T19:49:22;669.13;;;218.23;;
19887;SDS011;10106;51.332;12.336;2023-04-12T19:51:48;672.27;;;223.80;;
19887;SDS011;10106;51.332;12.336;2023-04-12T19:54:17;671.63;;;222.37;;
19887;SDS011;10106;51.332;12.336;2023-04-12T19:56:47;633.07;;;225.33;;
19887;SDS011;10106;51.332;12.336;2023-04-12T19:59:14;667.43;;;220.40;;
19887;SDS011;10106;51.332;12.336;2023-04-12T20:01:41;665.87;;;221.43;;
19887;SDS011;10106;51.332;12.336;2023-04-12T20:04:14;580.80;;;222.77;;
19887;SDS011;10106;51.332;12.336;2023-04-12T20:06:42;666.23;;;212.73;;
19887;SDS011;10106;51.332;12.336;2023-04-12T20:09:08;324.17;;;134.63;;
19887;SDS011;10106;51.332;12.336;2023-04-12T20:11:35;515.10;;;208.73;;
19887;SDS011;10106;51.332;12.336;2023-04-12T20:14:01;542.57;;;215.33;;
19887;SDS011;10106;51.332;12.336;2023-04-12T20:16:27;697.53;;;237.97;;
19887;SDS011;10106;51.332;12.336;2023-04-12T20:18:54;678.50;;;210.03;;
19887;SDS011;10106;51.332;12.336;2023-04-12T20:21:24;655.97;;;196.10;;
19887;SDS011;10106;51.332;12.336;2023-04-12T20:23:50;637.30;;;273.93;;
19887;SDS011;10106;51.332;12.336;2023-04-12T20:26:16;614.47;;;201.70;;
19887;SDS011;10106;51.332;12.336;2023-04-12T20:28:42;647.97;;;212.07;;
19887;SDS011;10106;51.332;12.336;2023-04-12T20:31:09;663.53;;;211.30;;
19887;SDS011;10106;51.332;12.336;2023-04-12T20:33:37;656.27;;;204.07;;
19887;SDS011;10106;51.332;12.336;2023-04-12T20:36:03;662.33;;;210.07;;
19887;SDS011;10106;51.332;12.336;2023-04-12T20:38:29;617.43;;;209.77;;
19887;SDS011;10106;51.332;12.336;2023-04-12T20:40:55;611.43;;;203.03;;
19887;SDS011;10106;51.332;12.336;2023-04-12T20:43:24;586.93;;;197.53;;
19887;SDS011;10106;51.332;12.336;2023-04-12T20:45:51;561.47;;;203.57;;
19887;SDS011;10106;51.332;12.336;2023-04-12T20:48:17;622.67;;;213.10;;
19887;SDS011;10106;51.332;12.336;2023-04-12T20:50:43;558.63;;;205.30;;
19887;SDS011;10106;51.332;12.336;2023-04-12T20:53:10;575.60;;;208.07;;
19887;SDS011;10106;51.332;12.336;2023-04-12T20:55:40;525.10;;;197.37;;
19887;SDS011;10106;51.332;12.336;2023-04-12T20:58:06;651.97;;;224.80;;
19887;SDS011;10106;51.332;12.336;2023-04-12T21:00:33;635.53;;;218.97;;
19887;SDS011;10106;51.332;12.336;2023-04-12T21:02:58;594.67;;;219.27;;
19887;SDS011;10106;51.332;12.336;2023-04-12T21:05:28;622.27;;;218.13;;
19887;SDS011;10106;51.332;12.336;2023-04-12T21:07:57;575.67;;;216.27;;
19887;SDS011;10106;51.332;12.336;2023-04-12T21:10:23;634.17;;;228.47;;
19887;SDS011;10106;51.332;12.336;2023-04-12T21:12:50;632.50;;;229.77;;
19887;SDS011;10106;51.332;12.336;2023-04-12T21:15:16;566.90;;;215.10;;
19887;SDS011;10106;51.332;12.336;2023-04-12T21:17:45;629.53;;;218.00;;
19887;SDS011;10106;51.332;12.336;2023-04-12T21:20:12;643.70;;;217.23;;